sensor_id;sensor_type;location;lat;lon;timestamp;P1;durP1;ratioP1;P2;durP2;ratioP2
54899;SDS011;40801;41.924;25.562;2024-03-08T00:01:47;38.42;;;27.40;;
54899;SDS011;40801;41.924;25.562;2024-03-08T00:04:12;35.28;;;27.98;;
54899;SDS011;40801;41.924;25.562;2024-03-08T00:06:38;32.10;;;26.27;;
54899;SDS011;40801;41.924;25.562;2024-03-08T00:09:04;38.83;;;29.02;;
54899;SDS011;40801;41.924;25.562;2024-03-08T00:11:32;36.72;;;27.63;;
54899;SDS011;40801;41.924;25.562;2024-03-08T00:13:58;33.35;;;25.98;;
54899;SDS011;40801;41.924;25.562;2024-03-08T00:16:24;34.17;;;28.30;;
54899;SDS011;40801;41.924;25.562;2024-03-08T00:18:49;36.80;;;27.85;;
54899;SDS011;40801;41.924;25.562;2024-03-08T00:21:15;36.22;;;27.92;;
54899;SDS011;40801;41.924;25.562;2024-03-08T00:23:40;38.05;;;28.70;;
54899;SDS011;40801;41.924;25.562;2024-03-08T00:26:06;33.83;;;26.52;;
54899;SDS011;40801;41.924;25.562;2024-03-08T00:28:32;40.45;;;31.50;;
54899;SDS011;40801;41.924;25.562;2024-03-08T00:30:59;40.63;;;30.40;;
54899;SDS011;40801;41.924;25.562;2024-03-08T00:33:25;42.58;;;31.48;;
54899;SDS011;40801;41.924;25.562;2024-03-08T00:35:50;43.65;;;32.70;;
54899;SDS011;40801;41.924;25.562;2024-03-08T00:38:16;45.28;;;31.75;;
54899;SDS011;40801;41.924;25.562;2024-03-08T00:40:43;40.92;;;29.95;;
54899;SDS011;40801;41.924;25.562;2024-03-08T00:43:08;37.38;;;29.83;;
54899;SDS011;40801;41.924;25.562;2024-03-08T00:45:34;41.63;;;32.05;;
54899;SDS011;40801;41.924;25.562;2024-03-08T00:47:59;36.28;;;27.63;;
54899;SDS011;40801;41.924;25.562;2024-03-08T00:50:25;38.85;;;29.23;;
54899;SDS011;40801;41.924;25.562;2024-03-08T00:52:50;36.05;;;28.42;;
54899;SDS011;40801;41.924;25.562;2024-03-08T00:55:16;36.80;;;29.27;;
54899;SDS011;40801;41.924;25.562;2024-03-08T00:57:41;37.13;;;28.80;;
54899;SDS011;40801;41.924;25.562;2024-03-08T01:00:07;34.88;;;28.15;;
54899;SDS011;40801;41.924;25.562;2024-03-08T01:02:36;33.08;;;25.35;;
54899;SDS011;40801;41.924;25.562;2024-03-08T01:05:02;38.33;;;27.17;;
54899;SDS011;40801;41.924;25.562;2024-03-08T01:07:31;38.63;;;29.88;;
54899;SDS011;40801;41.924;25.562;2024-03-08T01:09:56;33.22;;;26.40;;
54899;SDS011;40801;41.924;25.562;2024-03-08T01:12:22;35.47;;;26.65;;
54899;SDS011;40801;41.924;25.562;2024-03-08T01:14:47;32.95;;;27.55;;
54899;SDS011;40801;41.924;25.562;2024-03-08T01:17:13;37.65;;;28.63;;
54899;SDS011;40801;41.924;25.562;2024-03-08T01:19:38;33.72;;;27.17;;
54899;SDS011;40801;41.924;25.562;2024-03-08T01:22:03;36.65;;;27.85;;
54899;SDS011;40801;41.924;25.562;2024-03-08T01:24:29;37.50;;;29.70;;
54899;SDS011;40801;41.924;25.562;2024-03-08T01:26:54;38.17;;;29.13;;
54899;SDS011;40801;41.924;25.562;2024-03-08T01:29:20;38.50;;;28.77;;
54899;SDS011;40801;41.924;25.562;2024-03-08T01:31:45;35.55;;;27.17;;
54899;SDS011;40801;41.924;25.562;2024-03-08T01:34:10;38.78;;;30.40;;
54899;SDS011;40801;41.924;25.562;2024-03-08T01:36:36;39.85;;;29.05;;
54899;SDS011;40801;41.924;25.562;2024-03-08T01:39:02;38.42;;;29.58;;
54899;SDS011;40801;41.924;25.562;2024-03-08T01:41:32;35.55;;;27.92;;
54899;SDS011;40801;41.924;25.562;2024-03-08T01:44:02;40.25;;;29.85;;
54899;SDS011;40801;41.924;25.562;2024-03-08T01:46:28;32.70;;;27.08;;
54899;SDS011;40801;41.924;25.562;2024-03-08T01:48:54;37.03;;;28.67;;
54899;SDS011;40801;41.924;25.562;2024-03-08T01:51:20;37.08;;;28.75;;
54899;SDS011;40801;41.924;25.562;2024-03-08T01:53:46;35.83;;;27.60;;
54899;SDS011;40801;41.924;25.562;2024-03-08T01:56:13;37.50;;;28.63;;
54899;SDS011;40801;41.924;25.562;2024-03-08T01:58:40;34.50;;;26.50;;
54899;SDS011;40801;41.924;25.562;2024-03-08T02:01:11;34.53;;;26.90;;
54899;SDS011;40801;41.924;25.562;2024-03-08T02:03:39;37.85;;;26.75;;
54899;SDS011;40801;41.924;25.562;2024-03-08T02:06:05;36.05;;;25.92;;
54899;SDS011;40801;41.924;25.562;2024-03-08T02:11:00;33.92;;;25.77;;
54899;SDS011;40801;41.924;25.562;2024-03-08T02:13:27;33.03;;;24.77;;
54899;SDS011;40801;41.924;25.562;2024-03-08T02:18:19;34.33;;;23.52;;
54899;SDS011;40801;41.924;25.562;2024-03-08T02:23:24;26.02;;;23.20;;
54899;SDS011;40801;41.924;25.562;2024-03-08T02:25:50;28.63;;;24.42;;
54899;SDS011;40801;41.924;25.562;2024-03-08T02:28:16;28.50;;;22.75;;
54899;SDS011;40801;41.924;25.562;2024-03-08T02:30:43;26.65;;;21.63;;
54899;SDS011;40801;41.924;25.562;2024-03-08T02:33:10;34.33;;;25.65;;
54899;SDS011;40801;41.924;25.562;2024-03-08T02:35:41;30.08;;;24.55;;
54899;SDS011;40801;41.924;25.562;2024-03-08T02:38:07;33.10;;;25.25;;
54899;SDS011;40801;41.924;25.562;2024-03-08T02:40:33;30.15;;;24.17;;
54899;SDS011;40801;41.924;25.562;2024-03-08T02:42:58;30.05;;;24.00;;
54899;SDS011;40801;41.924;25.562;2024-03-08T02:45:23;26.98;;;22.60;;
54899;SDS011;40801;41.924;25.562;2024-03-08T02:47:49;29.50;;;24.17;;
54899;SDS011;40801;41.924;25.562;2024-03-08T02:50:15;36.83;;;25.75;;
54899;SDS011;40801;41.924;25.562;2024-03-08T02:52:41;33.90;;;25.63;;
54899;SDS011;40801;41.924;25.562;2024-03-08T02:55:07;31.63;;;25.58;;
54899;SDS011;40801;41.924;25.562;2024-03-08T02:57:35;36.92;;;24.77;;
54899;SDS011;40801;41.924;25.562;2024-03-08T03:00:01;31.45;;;25.65;;
54899;SDS011;40801;41.924;25.562;2024-03-08T03:02:27;30.35;;;23.63;;
54899;SDS011;40801;41.924;25.562;2024-03-08T03:04:52;32.78;;;25.48;;
54899;SDS011;40801;41.924;25.562;2024-03-08T03:07:20;33.67;;;26.65;;
54899;SDS011;40801;41.924;25.562;2024-03-08T03:09:46;33.40;;;25.50;;
54899;SDS011;40801;41.924;25.562;2024-03-08T03:12:12;33.90;;;25.35;;
54899;SDS011;40801;41.924;25.562;2024-03-08T03:14:37;36.72;;;27.08;;
54899;SDS011;40801;41.924;25.562;2024-03-08T03:17:05;32.22;;;25.27;;
54899;SDS011;40801;41.924;25.562;2024-03-08T03:19:31;39.13;;;28.25;;
54899;SDS011;40801;41.924;25.562;2024-03-08T03:21:56;35.38;;;28.52;;
54899;SDS011;40801;41.924;25.562;2024-03-08T03:24:22;36.58;;;27.23;;
54899;SDS011;40801;41.924;25.562;2024-03-08T03:26:48;35.83;;;28.33;;
54899;SDS011;40801;41.924;25.562;2024-03-08T03:29:14;34.97;;;26.60;;
54899;SDS011;40801;41.924;25.562;2024-03-08T03:31:41;38.38;;;29.52;;
54899;SDS011;40801;41.924;25.562;2024-03-08T03:34:07;35.80;;;29.48;;
54899;SDS011;40801;41.924;25.562;2024-03-08T03:36:34;35.35;;;27.58;;
54899;SDS011;40801;41.924;25.562;2024-03-08T03:39:00;37.75;;;28.80;;
54899;SDS011;40801;41.924;25.562;2024-03-08T03:41:41;34.85;;;27.38;;
54899;SDS011;40801;41.924;25.562;2024-03-08T03:44:06;34.30;;;29.63;;
54899;SDS011;40801;41.924;25.562;2024-03-08T03:46:32;39.85;;;28.50;;
54899;SDS011;40801;41.924;25.562;2024-03-08T03:48:58;28.25;;;24.23;;
54899;SDS011;40801;41.924;25.562;2024-03-08T03:51:24;31.30;;;24.08;;
54899;SDS011;40801;41.924;25.562;2024-03-08T03:53:49;27.38;;;21.13;;
54899;SDS011;40801;41.924;25.562;2024-03-08T03:56:15;29.70;;;22.40;;
54899;SDS011;40801;41.924;25.562;2024-03-08T03:58:40;25.95;;;21.05;;
54899;SDS011;40801;41.924;25.562;2024-03-08T04:01:06;33.05;;;24.83;;
54899;SDS011;40801;41.924;25.562;2024-03-08T04:03:31;31.10;;;24.00;;
54899;SDS011;40801;41.924;25.562;2024-03-08T04:05:56;33.95;;;23.25;;
54899;SDS011;40801;41.924;25.562;2024-03-08T04:08:22;31.50;;;24.85;;
54899;SDS011;40801;41.924;25.562;2024-03-08T04:10:49;35.13;;;26.60;;
54899;SDS011;40801;41.924;25.562;2024-03-08T04:13:14;29.95;;;23.52;;
54899;SDS011;40801;41.924;25.562;2024-03-08T04:15:40;30.88;;;25.48;;
54899;SDS011;40801;41.924;25.562;2024-03-08T04:18:08;30.15;;;23.98;;
54899;SDS011;40801;41.924;25.562;2024-03-08T04:20:33;30.98;;;23.42;;
54899;SDS011;40801;41.924;25.562;2024-03-08T04:22:59;32.25;;;25.25;;
54899;SDS011;40801;41.924;25.562;2024-03-08T04:25:24;40.15;;;27.55;;
54899;SDS011;40801;41.924;25.562;2024-03-08T04:27:49;34.50;;;26.50;;
54899;SDS011;40801;41.924;25.562;2024-03-08T04:30:17;41.05;;;28.75;;
54899;SDS011;40801;41.924;25.562;2024-03-08T04:32:42;38.90;;;31.23;;
54899;SDS011;40801;41.924;25.562;2024-03-08T04:35:09;33.95;;;26.48;;
54899;SDS011;40801;41.924;25.562;2024-03-08T04:37:34;37.63;;;27.85;;
54899;SDS011;40801;41.924;25.562;2024-03-08T04:39:59;36.25;;;28.65;;
54899;SDS011;40801;41.924;25.562;2024-03-08T04:42:25;37.17;;;27.73;;
54899;SDS011;40801;41.924;25.562;2024-03-08T04:44:53;38.45;;;28.80;;
54899;SDS011;40801;41.924;25.562;2024-03-08T04:47:19;42.33;;;30.67;;
54899;SDS011;40801;41.924;25.562;2024-03-08T04:49:45;41.10;;;30.98;;
54899;SDS011;40801;41.924;25.562;2024-03-08T04:52:11;40.95;;;31.75;;
54899;SDS011;40801;41.924;25.562;2024-03-08T04:54:37;39.67;;;30.35;;
54899;SDS011;40801;41.924;25.562;2024-03-08T04:57:03;44.05;;;31.65;;
54899;SDS011;40801;41.924;25.562;2024-03-08T04:59:29;45.17;;;31.95;;
54899;SDS011;40801;41.924;25.562;2024-03-08T05:01:55;43.75;;;31.70;;
54899;SDS011;40801;41.924;25.562;2024-03-08T05:04:21;43.20;;;32.40;;
54899;SDS011;40801;41.924;25.562;2024-03-08T05:06:47;43.88;;;31.48;;
54899;SDS011;40801;41.924;25.562;2024-03-08T05:09:13;41.25;;;31.95;;
54899;SDS011;40801;41.924;25.562;2024-03-08T05:11:43;45.08;;;32.15;;
54899;SDS011;40801;41.924;25.562;2024-03-08T05:14:09;48.00;;;35.28;;
54899;SDS011;40801;41.924;25.562;2024-03-08T05:16:35;56.13;;;41.90;;
54899;SDS011;40801;41.924;25.562;2024-03-08T05:19:01;43.10;;;32.22;;
54899;SDS011;40801;41.924;25.562;2024-03-08T05:21:29;43.50;;;33.92;;
54899;SDS011;40801;41.924;25.562;2024-03-08T05:23:55;45.72;;;33.40;;
54899;SDS011;40801;41.924;25.562;2024-03-08T05:26:20;38.40;;;30.02;;
54899;SDS011;40801;41.924;25.562;2024-03-08T05:28:47;41.92;;;32.22;;
54899;SDS011;40801;41.924;25.562;2024-03-08T05:31:20;40.50;;;30.92;;
54899;SDS011;40801;41.924;25.562;2024-03-08T05:33:47;43.60;;;29.70;;
54899;SDS011;40801;41.924;25.562;2024-03-08T05:36:13;42.50;;;30.90;;
54899;SDS011;40801;41.924;25.562;2024-03-08T05:38:40;36.67;;;28.23;;
54899;SDS011;40801;41.924;25.562;2024-03-08T05:41:07;39.20;;;28.35;;
54899;SDS011;40801;41.924;25.562;2024-03-08T05:43:33;35.88;;;27.13;;
54899;SDS011;40801;41.924;25.562;2024-03-08T05:45:58;34.65;;;29.05;;
54899;SDS011;40801;41.924;25.562;2024-03-08T05:48:23;40.38;;;29.30;;
54899;SDS011;40801;41.924;25.562;2024-03-08T05:50:50;40.78;;;31.83;;
54899;SDS011;40801;41.924;25.562;2024-03-08T05:53:15;35.28;;;28.38;;
54899;SDS011;40801;41.924;25.562;2024-03-08T05:55:41;49.45;;;32.50;;
54899;SDS011;40801;41.924;25.562;2024-03-08T05:58:06;45.25;;;33.45;;
54899;SDS011;40801;41.924;25.562;2024-03-08T06:00:33;39.65;;;30.85;;
54899;SDS011;40801;41.924;25.562;2024-03-08T06:02:59;44.53;;;34.88;;
54899;SDS011;40801;41.924;25.562;2024-03-08T06:05:24;47.35;;;36.80;;
54899;SDS011;40801;41.924;25.562;2024-03-08T06:07:50;32.40;;;26.10;;
54899;SDS011;40801;41.924;25.562;2024-03-08T06:10:18;36.35;;;26.83;;
54899;SDS011;40801;41.924;25.562;2024-03-08T06:12:44;42.95;;;32.00;;
54899;SDS011;40801;41.924;25.562;2024-03-08T06:15:10;35.72;;;29.13;;
54899;SDS011;40801;41.924;25.562;2024-03-08T06:17:39;37.05;;;29.58;;
54899;SDS011;40801;41.924;25.562;2024-03-08T06:20:08;45.83;;;36.60;;
54899;SDS011;40801;41.924;25.562;2024-03-08T06:22:38;43.78;;;38.78;;
54899;SDS011;40801;41.924;25.562;2024-03-08T06:25:07;37.30;;;31.10;;
54899;SDS011;40801;41.924;25.562;2024-03-08T06:27:36;37.85;;;29.52;;
54899;SDS011;40801;41.924;25.562;2024-03-08T06:30:02;38.65;;;29.13;;
54899;SDS011;40801;41.924;25.562;2024-03-08T06:32:29;40.67;;;30.85;;
54899;SDS011;40801;41.924;25.562;2024-03-08T06:34:55;40.75;;;33.65;;
54899;SDS011;40801;41.924;25.562;2024-03-08T06:37:21;38.28;;;28.92;;
54899;SDS011;40801;41.924;25.562;2024-03-08T06:39:47;51.47;;;40.58;;
54899;SDS011;40801;41.924;25.562;2024-03-08T06:42:13;41.05;;;29.17;;
54899;SDS011;40801;41.924;25.562;2024-03-08T06:44:39;42.92;;;32.83;;
54899;SDS011;40801;41.924;25.562;2024-03-08T06:47:13;33.97;;;26.85;;
54899;SDS011;40801;41.924;25.562;2024-03-08T06:49:40;48.67;;;36.40;;
54899;SDS011;40801;41.924;25.562;2024-03-08T06:52:05;34.00;;;26.92;;
54899;SDS011;40801;41.924;25.562;2024-03-08T06:54:32;34.97;;;28.75;;
54899;SDS011;40801;41.924;25.562;2024-03-08T06:56:57;37.83;;;30.33;;
54899;SDS011;40801;41.924;25.562;2024-03-08T06:59:22;34.38;;;25.55;;
54899;SDS011;40801;41.924;25.562;2024-03-08T07:01:48;29.65;;;26.02;;
54899;SDS011;40801;41.924;25.562;2024-03-08T07:04:13;42.92;;;30.42;;
54899;SDS011;40801;41.924;25.562;2024-03-08T07:06:39;32.00;;;26.60;;
54899;SDS011;40801;41.924;25.562;2024-03-08T07:09:05;37.85;;;28.65;;
54899;SDS011;40801;41.924;25.562;2024-03-08T07:11:31;41.13;;;31.55;;
54899;SDS011;40801;41.924;25.562;2024-03-08T07:13:56;115.38;;;80.22;;
54899;SDS011;40801;41.924;25.562;2024-03-08T07:16:23;89.43;;;64.82;;
54899;SDS011;40801;41.924;25.562;2024-03-08T07:18:48;34.70;;;26.42;;
54899;SDS011;40801;41.924;25.562;2024-03-08T07:21:17;35.22;;;28.73;;
54899;SDS011;40801;41.924;25.562;2024-03-08T07:23:43;36.40;;;29.02;;
54899;SDS011;40801;41.924;25.562;2024-03-08T07:26:19;30.90;;;24.35;;
54899;SDS011;40801;41.924;25.562;2024-03-08T07:28:45;32.67;;;24.92;;
54899;SDS011;40801;41.924;25.562;2024-03-08T07:31:10;32.55;;;27.95;;
54899;SDS011;40801;41.924;25.562;2024-03-08T07:33:42;31.65;;;26.70;;
54899;SDS011;40801;41.924;25.562;2024-03-08T07:36:07;33.30;;;26.23;;
54899;SDS011;40801;41.924;25.562;2024-03-08T07:38:33;33.17;;;25.67;;
54899;SDS011;40801;41.924;25.562;2024-03-08T07:40:59;34.72;;;26.65;;
54899;SDS011;40801;41.924;25.562;2024-03-08T07:43:25;37.67;;;28.60;;
54899;SDS011;40801;41.924;25.562;2024-03-08T07:45:51;35.88;;;27.02;;
54899;SDS011;40801;41.924;25.562;2024-03-08T07:48:18;37.55;;;27.77;;
54899;SDS011;40801;41.924;25.562;2024-03-08T07:50:43;34.28;;;27.35;;
54899;SDS011;40801;41.924;25.562;2024-03-08T07:53:08;31.77;;;26.85;;
54899;SDS011;40801;41.924;25.562;2024-03-08T07:55:35;30.38;;;26.75;;
54899;SDS011;40801;41.924;25.562;2024-03-08T07:58:01;32.13;;;25.33;;
54899;SDS011;40801;41.924;25.562;2024-03-08T08:00:28;33.97;;;27.40;;
54899;SDS011;40801;41.924;25.562;2024-03-08T08:02:55;29.92;;;23.45;;
54899;SDS011;40801;41.924;25.562;2024-03-08T08:05:21;33.55;;;25.90;;
54899;SDS011;40801;41.924;25.562;2024-03-08T08:07:46;29.77;;;25.48;;
54899;SDS011;40801;41.924;25.562;2024-03-08T08:10:15;32.95;;;26.77;;
54899;SDS011;40801;41.924;25.562;2024-03-08T08:12:50;33.42;;;27.98;;
54899;SDS011;40801;41.924;25.562;2024-03-08T08:15:16;38.80;;;30.38;;
54899;SDS011;40801;41.924;25.562;2024-03-08T08:17:42;31.92;;;26.42;;
54899;SDS011;40801;41.924;25.562;2024-03-08T08:20:11;37.05;;;27.17;;
54899;SDS011;40801;41.924;25.562;2024-03-08T08:22:40;36.65;;;24.80;;
54899;SDS011;40801;41.924;25.562;2024-03-08T08:25:09;32.22;;;26.65;;
54899;SDS011;40801;41.924;25.562;2024-03-08T08:27:38;37.97;;;27.58;;
54899;SDS011;40801;41.924;25.562;2024-03-08T08:30:07;62.00;;;44.22;;
54899;SDS011;40801;41.924;25.562;2024-03-08T08:32:36;27.55;;;22.75;;
54899;SDS011;40801;41.924;25.562;2024-03-08T08:35:03;27.75;;;23.30;;
54899;SDS011;40801;41.924;25.562;2024-03-08T08:37:30;29.75;;;24.15;;
54899;SDS011;40801;41.924;25.562;2024-03-08T08:39:56;30.30;;;24.17;;
54899;SDS011;40801;41.924;25.562;2024-03-08T08:42:22;34.78;;;26.40;;
54899;SDS011;40801;41.924;25.562;2024-03-08T08:44:48;42.05;;;24.98;;
54899;SDS011;40801;41.924;25.562;2024-03-08T08:47:15;36.08;;;24.48;;
54899;SDS011;40801;41.924;25.562;2024-03-08T08:49:43;29.92;;;25.25;;
54899;SDS011;40801;41.924;25.562;2024-03-08T08:52:11;34.92;;;27.05;;
54899;SDS011;40801;41.924;25.562;2024-03-08T08:54:36;31.95;;;27.10;;
54899;SDS011;40801;41.924;25.562;2024-03-08T08:57:02;34.17;;;27.30;;
54899;SDS011;40801;41.924;25.562;2024-03-08T08:59:32;34.92;;;26.48;;
54899;SDS011;40801;41.924;25.562;2024-03-08T09:01:58;32.97;;;27.17;;
54899;SDS011;40801;41.924;25.562;2024-03-08T09:04:23;36.50;;;29.02;;
54899;SDS011;40801;41.924;25.562;2024-03-08T09:06:49;32.35;;;26.10;;
54899;SDS011;40801;41.924;25.562;2024-03-08T09:09:14;35.35;;;27.65;;
54899;SDS011;40801;41.924;25.562;2024-03-08T09:11:42;45.38;;;33.83;;
54899;SDS011;40801;41.924;25.562;2024-03-08T09:14:07;35.38;;;29.02;;
54899;SDS011;40801;41.924;25.562;2024-03-08T09:16:34;34.40;;;27.30;;
54899;SDS011;40801;41.924;25.562;2024-03-08T09:19:00;38.03;;;32.03;;
54899;SDS011;40801;41.924;25.562;2024-03-08T09:21:25;31.35;;;26.95;;
54899;SDS011;40801;41.924;25.562;2024-03-08T09:23:52;41.85;;;31.48;;
54899;SDS011;40801;41.924;25.562;2024-03-08T09:26:18;28.85;;;24.88;;
54899;SDS011;40801;41.924;25.562;2024-03-08T09:28:44;35.00;;;26.55;;
54899;SDS011;40801;41.924;25.562;2024-03-08T09:31:10;36.65;;;29.17;;
54899;SDS011;40801;41.924;25.562;2024-03-08T09:33:36;37.75;;;28.25;;
54899;SDS011;40801;41.924;25.562;2024-03-08T09:36:02;29.05;;;24.20;;
54899;SDS011;40801;41.924;25.562;2024-03-08T09:38:28;60.15;;;32.13;;
54899;SDS011;40801;41.924;25.562;2024-03-08T09:40:54;34.50;;;25.10;;
54899;SDS011;40801;41.924;25.562;2024-03-08T09:43:21;31.67;;;25.20;;
54899;SDS011;40801;41.924;25.562;2024-03-08T09:45:49;30.80;;;24.83;;
54899;SDS011;40801;41.924;25.562;2024-03-08T09:48:16;35.80;;;29.27;;
54899;SDS011;40801;41.924;25.562;2024-03-08T09:50:44;33.20;;;25.55;;
54899;SDS011;40801;41.924;25.562;2024-03-08T09:53:13;31.30;;;25.80;;
54899;SDS011;40801;41.924;25.562;2024-03-08T09:55:38;31.50;;;26.60;;
54899;SDS011;40801;41.924;25.562;2024-03-08T09:58:13;24.63;;;21.23;;
54899;SDS011;40801;41.924;25.562;2024-03-08T10:00:58;27.08;;;23.58;;
54899;SDS011;40801;41.924;25.562;2024-03-08T10:03:23;30.48;;;23.50;;
54899;SDS011;40801;41.924;25.562;2024-03-08T10:05:51;26.33;;;22.67;;
54899;SDS011;40801;41.924;25.562;2024-03-08T10:08:16;31.35;;;24.92;;
54899;SDS011;40801;41.924;25.562;2024-03-08T10:10:42;27.35;;;22.30;;
54899;SDS011;40801;41.924;25.562;2024-03-08T10:13:08;26.73;;;21.80;;
54899;SDS011;40801;41.924;25.562;2024-03-08T10:15:35;29.95;;;24.88;;
54899;SDS011;40801;41.924;25.562;2024-03-08T10:18:01;28.83;;;25.42;;
54899;SDS011;40801;41.924;25.562;2024-03-08T10:20:27;22.05;;;17.90;;
54899;SDS011;40801;41.924;25.562;2024-03-08T10:23:00;23.90;;;21.20;;
54899;SDS011;40801;41.924;25.562;2024-03-08T10:25:28;32.83;;;26.10;;
54899;SDS011;40801;41.924;25.562;2024-03-08T10:27:55;20.77;;;18.58;;
54899;SDS011;40801;41.924;25.562;2024-03-08T10:30:21;30.02;;;23.23;;
54899;SDS011;40801;41.924;25.562;2024-03-08T10:32:47;17.88;;;15.02;;
54899;SDS011;40801;41.924;25.562;2024-03-08T10:35:13;16.67;;;14.77;;
54899;SDS011;40801;41.924;25.562;2024-03-08T10:40:17;18.60;;;15.15;;
54899;SDS011;40801;41.924;25.562;2024-03-08T10:42:57;17.05;;;15.30;;
54899;SDS011;40801;41.924;25.562;2024-03-08T10:45:39;19.90;;;16.88;;
54899;SDS011;40801;41.924;25.562;2024-03-08T10:50:59;15.70;;;13.63;;
54899;SDS011;40801;41.924;25.562;2024-03-08T10:53:27;40.80;;;20.95;;
54899;SDS011;40801;41.924;25.562;2024-03-08T10:55:57;17.80;;;16.00;;
54899;SDS011;40801;41.924;25.562;2024-03-08T10:58:24;17.38;;;15.07;;
54899;SDS011;40801;41.924;25.562;2024-03-08T11:00:56;17.85;;;15.93;;
54899;SDS011;40801;41.924;25.562;2024-03-08T11:06:07;19.30;;;16.30;;
54899;SDS011;40801;41.924;25.562;2024-03-08T11:08:35;17.23;;;15.30;;
54899;SDS011;40801;41.924;25.562;2024-03-08T11:11:01;18.30;;;16.38;;
54899;SDS011;40801;41.924;25.562;2024-03-08T11:15:59;14.55;;;13.05;;
54899;SDS011;40801;41.924;25.562;2024-03-08T11:18:26;20.15;;;15.18;;
54899;SDS011;40801;41.924;25.562;2024-03-08T11:20:55;16.58;;;14.98;;
54899;SDS011;40801;41.924;25.562;2024-03-08T11:23:22;29.83;;;24.67;;
54899;SDS011;40801;41.924;25.562;2024-03-08T11:25:48;19.45;;;15.20;;
54899;SDS011;40801;41.924;25.562;2024-03-08T11:28:21;22.17;;;16.48;;
54899;SDS011;40801;41.924;25.562;2024-03-08T11:33:29;14.07;;;12.48;;
54899;SDS011;40801;41.924;25.562;2024-03-08T11:36:02;13.82;;;12.25;;
54899;SDS011;40801;41.924;25.562;2024-03-08T11:38:48;17.38;;;15.70;;
54899;SDS011;40801;41.924;25.562;2024-03-08T11:41:17;17.30;;;14.57;;
54899;SDS011;40801;41.924;25.562;2024-03-08T11:43:45;17.98;;;15.45;;
54899;SDS011;40801;41.924;25.562;2024-03-08T11:46:11;15.88;;;14.13;;
54899;SDS011;40801;41.924;25.562;2024-03-08T11:48:38;12.77;;;11.20;;
54899;SDS011;40801;41.924;25.562;2024-03-08T11:51:06;13.52;;;12.32;;
54899;SDS011;40801;41.924;25.562;2024-03-08T11:53:33;25.73;;;20.58;;
54899;SDS011;40801;41.924;25.562;2024-03-08T11:56:05;14.93;;;13.05;;
54899;SDS011;40801;41.924;25.562;2024-03-08T11:58:32;17.50;;;15.77;;
54899;SDS011;40801;41.924;25.562;2024-03-08T12:01:04;15.93;;;14.38;;
54899;SDS011;40801;41.924;25.562;2024-03-08T12:03:41;16.23;;;14.40;;
54899;SDS011;40801;41.924;25.562;2024-03-08T12:06:08;13.30;;;11.90;;
54899;SDS011;40801;41.924;25.562;2024-03-08T12:08:38;16.05;;;11.75;;
54899;SDS011;40801;41.924;25.562;2024-03-08T12:11:04;16.60;;;12.75;;
54899;SDS011;40801;41.924;25.562;2024-03-08T12:13:33;16.58;;;14.63;;
54899;SDS011;40801;41.924;25.562;2024-03-08T12:16:02;14.68;;;13.23;;
54899;SDS011;40801;41.924;25.562;2024-03-08T12:18:37;12.73;;;11.50;;
54899;SDS011;40801;41.924;25.562;2024-03-08T12:21:07;9.15;;;8.30;;
54899;SDS011;40801;41.924;25.562;2024-03-08T12:23:33;9.57;;;8.57;;
54899;SDS011;40801;41.924;25.562;2024-03-08T12:26:09;13.23;;;11.93;;
54899;SDS011;40801;41.924;25.562;2024-03-08T12:31:06;14.30;;;12.77;;
54899;SDS011;40801;41.924;25.562;2024-03-08T12:33:56;15.65;;;13.07;;
54899;SDS011;40801;41.924;25.562;2024-03-08T12:36:24;13.88;;;12.05;;
54899;SDS011;40801;41.924;25.562;2024-03-08T12:38:50;19.48;;;14.85;;
54899;SDS011;40801;41.924;25.562;2024-03-08T12:41:19;22.60;;;14.93;;
54899;SDS011;40801;41.924;25.562;2024-03-08T12:46:22;21.23;;;14.93;;
54899;SDS011;40801;41.924;25.562;2024-03-08T12:48:51;18.73;;;14.52;;
54899;SDS011;40801;41.924;25.562;2024-03-08T12:51:18;16.95;;;15.25;;
54899;SDS011;40801;41.924;25.562;2024-03-08T12:53:45;17.88;;;15.95;;
54899;SDS011;40801;41.924;25.562;2024-03-08T12:56:12;28.35;;;23.40;;
54899;SDS011;40801;41.924;25.562;2024-03-08T12:58:38;16.02;;;13.68;;
54899;SDS011;40801;41.924;25.562;2024-03-08T13:01:07;24.10;;;19.13;;
54899;SDS011;40801;41.924;25.562;2024-03-08T13:03:33;19.92;;;17.75;;
54899;SDS011;40801;41.924;25.562;2024-03-08T13:06:01;18.77;;;16.10;;
54899;SDS011;40801;41.924;25.562;2024-03-08T13:08:36;33.83;;;28.63;;
54899;SDS011;40801;41.924;25.562;2024-03-08T13:11:05;16.95;;;15.10;;
54899;SDS011;40801;41.924;25.562;2024-03-08T13:13:32;15.75;;;14.02;;
54899;SDS011;40801;41.924;25.562;2024-03-08T13:16:00;17.90;;;15.98;;
54899;SDS011;40801;41.924;25.562;2024-03-08T13:18:26;46.15;;;41.58;;
54899;SDS011;40801;41.924;25.562;2024-03-08T13:20:52;22.27;;;19.98;;
54899;SDS011;40801;41.924;25.562;2024-03-08T13:23:19;28.08;;;25.13;;
54899;SDS011;40801;41.924;25.562;2024-03-08T13:25:45;26.42;;;23.73;;
54899;SDS011;40801;41.924;25.562;2024-03-08T13:28:12;26.17;;;23.35;;
54899;SDS011;40801;41.924;25.562;2024-03-08T13:30:38;24.20;;;20.38;;
54899;SDS011;40801;41.924;25.562;2024-03-08T13:33:04;19.33;;;16.92;;
54899;SDS011;40801;41.924;25.562;2024-03-08T13:35:30;16.73;;;15.02;;
54899;SDS011;40801;41.924;25.562;2024-03-08T13:40:25;14.15;;;12.68;;
54899;SDS011;40801;41.924;25.562;2024-03-08T13:42:50;13.00;;;11.52;;
54899;SDS011;40801;41.924;25.562;2024-03-08T13:45:16;14.85;;;11.75;;
54899;SDS011;40801;41.924;25.562;2024-03-08T13:47:48;16.23;;;13.85;;
54899;SDS011;40801;41.924;25.562;2024-03-08T13:50:16;12.80;;;11.50;;
54899;SDS011;40801;41.924;25.562;2024-03-08T13:52:46;17.73;;;14.65;;
54899;SDS011;40801;41.924;25.562;2024-03-08T13:55:14;12.75;;;11.45;;
54899;SDS011;40801;41.924;25.562;2024-03-08T13:57:40;14.05;;;12.20;;
54899;SDS011;40801;41.924;25.562;2024-03-08T14:00:05;15.45;;;13.13;;
54899;SDS011;40801;41.924;25.562;2024-03-08T14:02:53;30.25;;;12.85;;
54899;SDS011;40801;41.924;25.562;2024-03-08T14:05:19;15.63;;;13.05;;
54899;SDS011;40801;41.924;25.562;2024-03-08T14:07:44;9.90;;;8.90;;
54899;SDS011;40801;41.924;25.562;2024-03-08T14:10:13;14.07;;;12.02;;
54899;SDS011;40801;41.924;25.562;2024-03-08T14:12:40;23.27;;;18.13;;
54899;SDS011;40801;41.924;25.562;2024-03-08T14:15:05;11.77;;;10.40;;
54899;SDS011;40801;41.924;25.562;2024-03-08T14:17:31;12.88;;;11.52;;
54899;SDS011;40801;41.924;25.562;2024-03-08T14:19:58;12.15;;;10.85;;
54899;SDS011;40801;41.924;25.562;2024-03-08T14:22:24;18.50;;;16.08;;
54899;SDS011;40801;41.924;25.562;2024-03-08T14:24:49;18.02;;;14.55;;
54899;SDS011;40801;41.924;25.562;2024-03-08T14:27:16;18.27;;;14.27;;
54899;SDS011;40801;41.924;25.562;2024-03-08T14:29:43;14.43;;;12.93;;
54899;SDS011;40801;41.924;25.562;2024-03-08T14:32:09;16.67;;;12.30;;
54899;SDS011;40801;41.924;25.562;2024-03-08T14:34:35;14.10;;;11.73;;
54899;SDS011;40801;41.924;25.562;2024-03-08T14:37:01;15.07;;;12.50;;